createdAt,value
2023-03-29T00:01:51.192Z,7.73
2023-03-29T00:04:17.486Z,7.69
2023-03-29T00:06:43.764Z,7.61
2023-03-29T00:09:10.120Z,7.59
2023-03-29T00:11:36.410Z,7.51
2023-03-29T00:14:02.656Z,7.57
2023-03-29T00:16:28.925Z,7.53
2023-03-29T00:18:55.410Z,7.55
2023-03-29T00:21:22.074Z,7.51
2023-03-29T00:23:48.348Z,7.60
2023-03-29T00:26:14.606Z,7.72
2023-03-29T00:28:40.837Z,7.80
2023-03-29T00:31:07.192Z,7.84
2023-03-29T00:33:33.496Z,7.86
2023-03-29T00:35:59.774Z,7.89
2023-03-29T00:38:26.050Z,7.90
2023-03-29T00:40:52.303Z,7.86
2023-03-29T00:43:18.529Z,7.79
2023-03-29T00:45:44.751Z,7.87
2023-03-29T00:48:11.048Z,7.84
2023-03-29T00:50:37.356Z,7.55
2023-03-29T00:53:03.638Z,7.20
2023-03-29T00:55:29.881Z,6.90
2023-03-29T00:57:56.112Z,6.94
2023-03-29T01:00:22.402Z,7.12
2023-03-29T01:02:48.687Z,7.15
2023-03-29T01:05:15.007Z,7.26
2023-03-29T01:07:41.321Z,7.35
2023-03-29T01:10:07.592Z,7.42
2023-03-29T01:12:33.844Z,7.36
2023-03-29T01:15:00.121Z,7.16
2023-03-29T01:17:26.463Z,7.24
2023-03-29T01:19:52.760Z,7.26
2023-03-29T01:22:18.985Z,7.34
2023-03-29T01:24:45.296Z,7.45
2023-03-29T01:27:11.596Z,7.55
2023-03-29T01:29:37.828Z,7.57
2023-03-29T01:32:04.130Z,7.63
2023-03-29T01:34:30.475Z,7.61
2023-03-29T01:36:56.717Z,7.47
2023-03-29T01:39:22.997Z,7.49
2023-03-29T01:41:49.240Z,7.50
2023-03-29T01:44:15.511Z,7.44
2023-03-29T01:46:41.740Z,7.32
2023-03-29T01:49:07.969Z,7.37
2023-03-29T01:51:34.231Z,7.43
2023-03-29T01:54:00.480Z,7.42
2023-03-29T01:56:26.753Z,7.30
2023-03-29T01:58:52.975Z,6.96
2023-03-29T02:01:19.255Z,6.75
2023-03-29T02:03:45.602Z,6.52
2023-03-29T02:06:11.924Z,6.50
2023-03-29T02:08:38.164Z,6.58
2023-03-29T02:11:04.649Z,6.53
2023-03-29T02:13:31.019Z,6.56
2023-03-29T02:15:57.332Z,6.46
2023-03-29T02:18:23.622Z,6.46
2023-03-29T02:20:49.883Z,6.35
2023-03-29T02:23:16.131Z,6.41
2023-03-29T02:25:42.366Z,6.15
2023-03-29T02:28:08.584Z,6.21
2023-03-29T02:30:34.839Z,6.28
2023-03-29T02:33:01.124Z,6.32
2023-03-29T02:35:27.414Z,6.22
2023-03-29T02:37:53.674Z,6.39
2023-03-29T02:40:19.900Z,6.55
2023-03-29T02:42:46.148Z,6.73
2023-03-29T02:45:12.426Z,6.58
2023-03-29T02:47:38.711Z,5.17
2023-03-29T02:50:05.005Z,5.27
2023-03-29T02:52:31.347Z,5.32
2023-03-29T02:54:57.572Z,4.99
2023-03-29T02:57:23.830Z,4.91
2023-03-29T02:59:50.112Z,5.08
2023-03-29T03:02:16.417Z,5.23
2023-03-29T03:04:42.715Z,5.49
2023-03-29T03:07:08.968Z,5.38
2023-03-29T03:09:35.228Z,5.59
2023-03-29T03:12:01.533Z,5.76
2023-03-29T03:14:27.856Z,5.98
2023-03-29T03:16:54.159Z,6.17
2023-03-29T03:19:20.403Z,6.16
2023-03-29T03:21:46.651Z,6.20
2023-03-29T03:24:12.881Z,5.95
2023-03-29T03:26:39.112Z,5.69
2023-03-29T03:29:05.375Z,5.53
2023-03-29T03:31:31.652Z,5.51
2023-03-29T03:33:57.926Z,5.63
2023-03-29T03:36:24.172Z,5.71
2023-03-29T03:38:50.405Z,5.67
2023-03-29T03:41:16.662Z,5.59
2023-03-29T03:43:42.981Z,5.69
2023-03-29T03:46:09.288Z,5.85
2023-03-29T03:48:35.596Z,5.93
2023-03-29T03:51:02.114Z,6.01
2023-03-29T03:53:28.486Z,5.99
2023-03-29T03:55:54.745Z,6.07
2023-03-29T03:58:20.982Z,6.17
2023-03-29T04:00:47.212Z,6.23
2023-03-29T04:03:13.555Z,6.27
2023-03-29T04:05:40.038Z,6.32
2023-03-29T04:08:06.300Z,6.34
2023-03-29T04:10:32.574Z,6.03
2023-03-29T04:12:58.792Z,5.83
2023-03-29T04:15:25.052Z,5.79
2023-03-29T04:17:51.391Z,5.78
2023-03-29T04:20:17.897Z,5.96
2023-03-29T04:22:44.138Z,6.06
2023-03-29T04:25:10.480Z,6.14
2023-03-29T04:27:36.815Z,6.10
2023-03-29T04:30:03.080Z,6.05
2023-03-29T04:32:29.351Z,6.17
2023-03-29T04:34:55.630Z,6.23
2023-03-29T04:37:21.876Z,6.28
2023-03-29T04:39:48.176Z,6.34
2023-03-29T04:42:14.448Z,6.43
2023-03-29T04:44:40.740Z,6.42
2023-03-29T04:47:07.033Z,5.32
2023-03-29T04:49:33.257Z,5.12
2023-03-29T04:51:59.481Z,5.34
2023-03-29T04:54:25.711Z,5.50
2023-03-29T04:56:51.977Z,4.86
2023-03-29T04:59:18.228Z,5.07
2023-03-29T05:01:44.482Z,5.20
2023-03-29T05:04:12.650Z,5.20
2023-03-29T05:06:39.141Z,5.12
2023-03-29T05:09:05.372Z,5.31
2023-03-29T05:11:31.636Z,5.44
2023-03-29T05:13:57.890Z,5.52
2023-03-29T05:16:24.145Z,5.47
2023-03-29T05:18:50.424Z,5.46
2023-03-29T05:21:16.720Z,5.21
2023-03-29T05:23:42.976Z,4.73
2023-03-29T05:26:09.208Z,4.88
2023-03-29T05:28:35.447Z,4.91
2023-03-29T05:31:01.935Z,5.15
2023-03-29T05:33:28.371Z,5.37
2023-03-29T05:35:54.686Z,5.53
2023-03-29T05:38:21.016Z,5.56
2023-03-29T05:40:47.314Z,5.56
2023-03-29T05:43:13.540Z,5.64
2023-03-29T05:45:39.967Z,5.59
2023-03-29T05:48:06.305Z,5.57
2023-03-29T05:50:32.564Z,5.52
2023-03-29T05:52:58.850Z,5.54
2023-03-29T05:55:25.086Z,5.61
2023-03-29T05:57:51.329Z,5.70
2023-03-29T06:00:17.581Z,5.56
2023-03-29T06:02:43.911Z,5.61
2023-03-29T06:05:10.500Z,5.67
2023-03-29T06:07:37.189Z,5.84
2023-03-29T06:10:05.786Z,5.99
2023-03-29T06:12:32.081Z,6.13
2023-03-29T06:14:58.350Z,6.06
2023-03-29T06:17:24.614Z,5.86
2023-03-29T06:19:50.902Z,5.88
2023-03-29T06:22:17.194Z,5.92
2023-03-29T06:24:43.436Z,5.69
2023-03-29T06:27:09.689Z,5.55
2023-03-29T06:29:35.944Z,5.40
2023-03-29T06:32:02.241Z,5.12
2023-03-29T06:34:28.503Z,5.27
2023-03-29T06:36:54.824Z,5.47
2023-03-29T06:39:21.085Z,5.60
2023-03-29T06:41:47.385Z,5.73
2023-03-29T06:44:13.659Z,5.87
2023-03-29T06:46:39.935Z,5.98
2023-03-29T06:49:06.208Z,6.09
2023-03-29T06:51:32.474Z,6.26
2023-03-29T06:53:58.828Z,6.41
2023-03-29T06:56:25.101Z,6.60
2023-03-29T06:58:51.478Z,6.25
2023-03-29T07:01:17.952Z,5.60
2023-03-29T07:03:46.083Z,5.03
2023-03-29T07:06:12.959Z,4.71
2023-03-29T07:08:39.204Z,4.49
2023-03-29T07:11:05.607Z,5.01
2023-03-29T07:13:32.008Z,5.36
2023-03-29T07:15:58.273Z,5.54
2023-03-29T07:18:25.995Z,5.67
2023-03-29T07:20:52.238Z,5.70
2023-03-29T07:23:18.509Z,5.90
2023-03-29T07:25:44.758Z,6.12
2023-03-29T07:28:11.016Z,6.40
2023-03-29T07:30:37.298Z,6.64
2023-03-29T07:33:03.638Z,6.70
2023-03-29T07:35:29.952Z,6.33
2023-03-29T07:37:56.222Z,6.74
2023-03-29T07:40:22.497Z,5.73
2023-03-29T07:42:48.729Z,6.09
2023-03-29T07:45:15.134Z,6.45
2023-03-29T07:47:41.413Z,6.80
2023-03-29T07:50:07.715Z,6.83
2023-03-29T07:52:33.964Z,7.12
2023-03-29T07:55:01.967Z,7.34
2023-03-29T07:57:28.635Z,6.74
2023-03-29T07:59:54.924Z,7.08
2023-03-29T08:02:21.184Z,7.36
2023-03-29T08:04:47.479Z,7.54
2023-03-29T08:07:14.393Z,7.61
2023-03-29T08:09:41.609Z,7.63
2023-03-29T08:12:07.857Z,7.71
2023-03-29T08:14:34.154Z,7.76
2023-03-29T08:17:00.736Z,7.65
2023-03-29T08:19:27.159Z,7.73
2023-03-29T08:21:53.480Z,7.84
2023-03-29T08:24:20.992Z,7.38
2023-03-29T08:26:47.445Z,7.51
2023-03-29T08:29:13.677Z,7.73
2023-03-29T08:31:42.449Z,7.96
2023-03-29T08:34:08.820Z,8.22
2023-03-29T08:36:35.139Z,8.49
2023-03-29T08:39:01.488Z,8.60
2023-03-29T08:41:28.274Z,8.60
2023-03-29T08:43:54.540Z,8.51
2023-03-29T08:46:20.942Z,8.69
2023-03-29T08:48:47.212Z,8.82
2023-03-29T08:51:13.465Z,9.02
2023-03-29T08:53:39.775Z,8.81
2023-03-29T08:56:06.091Z,9.02
2023-03-29T08:58:32.352Z,8.91
2023-03-29T09:00:58.717Z,8.94
2023-03-29T09:03:25.075Z,9.12
2023-03-29T09:05:51.635Z,9.35
2023-03-29T09:08:17.956Z,9.41
2023-03-29T09:10:44.259Z,9.17
2023-03-29T09:13:10.572Z,9.50
2023-03-29T09:15:36.978Z,9.79
2023-03-29T09:18:03.378Z,9.89
2023-03-29T09:20:29.723Z,9.54
2023-03-29T09:22:56.013Z,9.48
2023-03-29T09:25:23.862Z,9.33
2023-03-29T09:27:50.182Z,7.92
2023-03-29T09:30:16.478Z,7.14
2023-03-29T09:32:42.767Z,7.27
2023-03-29T09:35:09.084Z,6.69
2023-03-29T09:37:35.325Z,6.38
2023-03-29T09:40:03.794Z,7.00
2023-03-29T09:42:31.279Z,7.55
2023-03-29T09:44:57.692Z,8.14
2023-03-29T09:47:23.995Z,8.65
2023-03-29T09:49:50.256Z,9.14
2023-03-29T09:52:16.478Z,9.55
2023-03-29T09:54:42.709Z,9.79
2023-03-29T09:57:08.997Z,9.94
2023-03-29T09:59:35.265Z,10.20
2023-03-29T10:02:01.496Z,10.50
2023-03-29T10:04:27.845Z,10.33
2023-03-29T10:06:54.191Z,10.50
2023-03-29T10:09:20.426Z,10.69
2023-03-29T10:11:46.638Z,10.64
2023-03-29T10:14:12.854Z,10.23
2023-03-29T10:16:39.249Z,10.57
2023-03-29T10:19:05.502Z,10.66
2023-03-29T10:21:31.768Z,10.49
2023-03-29T10:23:58.027Z,10.45
2023-03-29T10:26:24.260Z,10.48
2023-03-29T10:28:50.502Z,10.45
2023-03-29T10:31:17.904Z,10.85
2023-03-29T10:33:44.243Z,11.20
2023-03-29T10:36:10.497Z,11.55
2023-03-29T10:38:36.769Z,11.62
2023-03-29T10:41:03.216Z,11.93
2023-03-29T10:43:29.690Z,12.14
2023-03-29T10:45:56.073Z,11.93
2023-03-29T10:48:22.373Z,10.83
2023-03-29T10:50:48.622Z,11.16
2023-03-29T10:53:14.880Z,11.61
2023-03-29T10:55:41.263Z,11.54
2023-03-29T10:58:07.516Z,11.89
2023-03-29T11:00:33.823Z,12.01
2023-03-29T11:03:00.296Z,12.05
2023-03-29T11:05:26.648Z,11.91
2023-03-29T11:07:52.917Z,11.71
2023-03-29T11:10:19.145Z,11.79
2023-03-29T11:12:45.384Z,11.99
2023-03-29T11:15:11.643Z,12.30
2023-03-29T11:17:37.880Z,12.13
2023-03-29T11:20:05.370Z,11.68
2023-03-29T11:22:31.695Z,12.18
2023-03-29T11:24:57.927Z,12.70
2023-03-29T11:27:24.147Z,13.01
2023-03-29T11:29:50.426Z,12.66
2023-03-29T11:32:16.732Z,12.28
2023-03-29T11:34:42.987Z,12.39
2023-03-29T11:37:09.208Z,12.46
2023-03-29T11:39:35.473Z,12.15
2023-03-29T11:42:01.691Z,11.98
2023-03-29T11:44:27.917Z,11.85
2023-03-29T11:46:56.009Z,11.86
2023-03-29T11:49:22.302Z,11.82
2023-03-29T11:51:48.529Z,11.85
2023-03-29T11:54:14.851Z,11.87
2023-03-29T11:56:41.187Z,11.90
2023-03-29T11:59:07.559Z,11.78
2023-03-29T12:01:33.829Z,11.73
2023-03-29T12:04:00.188Z,11.57
2023-03-29T12:06:26.526Z,11.49
2023-03-29T12:08:52.903Z,11.43
2023-03-29T12:11:19.122Z,11.44
2023-03-29T12:13:45.341Z,11.52
2023-03-29T12:16:11.661Z,11.60
2023-03-29T12:18:37.913Z,11.43
2023-03-29T12:21:04.166Z,11.48
2023-03-29T12:23:30.459Z,11.56
2023-03-29T12:25:56.678Z,11.71
2023-03-29T12:28:22.908Z,11.84
2023-03-29T12:30:49.153Z,11.94
2023-03-29T12:33:16.090Z,12.05
2023-03-29T12:35:42.502Z,12.01
2023-03-29T12:38:08.797Z,12.04
2023-03-29T12:40:35.095Z,11.75
2023-03-29T12:43:01.345Z,11.62
2023-03-29T12:45:27.573Z,11.81
2023-03-29T12:47:53.828Z,11.90
2023-03-29T12:50:20.075Z,12.14
2023-03-29T12:52:46.312Z,12.44
2023-03-29T12:55:12.560Z,12.58
2023-03-29T12:57:38.792Z,12.84
2023-03-29T13:00:05.060Z,12.97
2023-03-29T13:02:31.411Z,13.18
2023-03-29T13:04:57.721Z,13.48
2023-03-29T13:07:24.189Z,13.60
2023-03-29T13:09:50.452Z,13.43
2023-03-29T13:12:16.670Z,13.70
2023-03-29T13:14:42.907Z,14.00
2023-03-29T13:17:18.154Z,14.16
2023-03-29T13:19:44.852Z,14.01
2023-03-29T13:22:11.132Z,13.85
2023-03-29T13:24:37.431Z,13.76
2023-03-29T13:27:03.655Z,13.67
2023-03-29T13:29:29.937Z,13.71
2023-03-29T13:31:56.162Z,13.82
2023-03-29T13:34:22.467Z,14.03
2023-03-29T13:36:48.714Z,14.13
2023-03-29T13:39:14.957Z,14.27
2023-03-29T13:41:41.213Z,14.40
2023-03-29T13:44:07.479Z,14.31
2023-03-29T13:46:33.728Z,14.44
2023-03-29T13:49:00.088Z,14.32
2023-03-29T13:51:26.409Z,14.35
2023-03-29T13:53:52.638Z,14.42
2023-03-29T13:56:18.896Z,14.48
2023-03-29T13:58:45.120Z,14.50
2023-03-29T14:01:11.392Z,14.67
2023-03-29T14:03:37.698Z,14.43
2023-03-29T14:06:04.068Z,14.46
2023-03-29T14:08:30.576Z,14.58
2023-03-29T14:10:56.845Z,14.57
2023-03-29T14:13:23.067Z,14.06
2023-03-29T14:15:49.378Z,13.46
2023-03-29T14:18:15.684Z,13.13
2023-03-29T14:20:41.978Z,13.20
2023-03-29T14:23:08.396Z,12.63
2023-03-29T14:25:34.733Z,11.43
2023-03-29T14:28:00.966Z,11.28
2023-03-29T14:30:27.196Z,11.39
2023-03-29T14:32:53.505Z,11.57
2023-03-29T14:35:19.762Z,11.74
2023-03-29T14:37:45.997Z,12.01
2023-03-29T14:40:12.221Z,12.29
2023-03-29T14:42:38.458Z,12.53
2023-03-29T14:45:04.797Z,12.69
2023-03-29T14:47:31.157Z,12.59
2023-03-29T14:49:57.422Z,12.99
2023-03-29T14:52:23.701Z,13.26
2023-03-29T14:54:50.037Z,13.47
2023-03-29T14:57:16.411Z,13.60
2023-03-29T14:59:42.728Z,13.81
2023-03-29T15:02:09.080Z,14.02
2023-03-29T15:04:35.374Z,14.11
2023-03-29T15:07:01.688Z,13.63
2023-03-29T15:09:27.953Z,13.28
2023-03-29T15:11:54.184Z,13.37
2023-03-29T15:14:20.459Z,13.49
2023-03-29T15:16:46.681Z,13.57
2023-03-29T15:19:12.998Z,13.57
2023-03-29T15:21:39.244Z,13.47
2023-03-29T15:24:05.462Z,13.41
2023-03-29T15:26:31.715Z,13.44
2023-03-29T15:28:57.948Z,13.44
2023-03-29T15:31:24.208Z,13.58
2023-03-29T15:33:50.548Z,13.61
2023-03-29T15:36:16.858Z,13.65
2023-03-29T15:38:45.076Z,13.75
2023-03-29T15:41:11.844Z,13.80
2023-03-29T15:43:38.079Z,13.75
2023-03-29T15:46:04.603Z,13.65
2023-03-29T15:48:31.230Z,13.63
2023-03-29T15:51:00.819Z,13.38
2023-03-29T15:53:28.325Z,13.42
2023-03-29T15:55:54.604Z,13.52
2023-03-29T15:58:20.869Z,13.63
2023-03-29T16:00:47.261Z,13.70
2023-03-29T16:03:13.629Z,13.73
2023-03-29T16:05:39.881Z,13.83
2023-03-29T16:08:06.100Z,13.85
2023-03-29T16:10:32.335Z,13.91
2023-03-29T16:12:58.599Z,13.87
2023-03-29T16:15:24.834Z,13.78
2023-03-29T16:17:51.122Z,13.86
2023-03-29T16:20:17.406Z,13.98
2023-03-29T16:22:43.702Z,13.91
2023-03-29T16:25:09.954Z,13.62
2023-03-29T16:27:36.311Z,13.62
2023-03-29T16:30:02.622Z,13.66
2023-03-29T16:32:28.957Z,13.63
2023-03-29T16:34:55.234Z,13.65
2023-03-29T16:37:21.475Z,13.52
2023-03-29T16:39:47.725Z,13.54
2023-03-29T16:42:13.950Z,13.51
2023-03-29T16:44:40.190Z,13.48
2023-03-29T16:47:06.432Z,13.43
2023-03-29T16:49:32.682Z,13.47
2023-03-29T16:51:58.920Z,13.44
2023-03-29T16:54:26.308Z,13.39
2023-03-29T16:56:52.638Z,13.43
2023-03-29T16:59:18.923Z,13.41
2023-03-29T17:01:45.306Z,13.37
2023-03-29T17:04:11.647Z,13.31
2023-03-29T17:06:37.940Z,13.20
2023-03-29T17:09:04.171Z,13.14
2023-03-29T17:11:30.458Z,12.99
2023-03-29T17:13:56.766Z,12.96
2023-03-29T17:16:23.050Z,12.92
2023-03-29T17:18:49.356Z,12.87
2023-03-29T17:21:15.619Z,12.89
2023-03-29T17:23:41.848Z,12.86
2023-03-29T17:26:08.129Z,12.76
2023-03-29T17:28:34.390Z,12.68
2023-03-29T17:31:00.680Z,12.72
2023-03-29T17:33:26.939Z,12.74
2023-03-29T17:35:53.250Z,12.82
2023-03-29T17:38:19.646Z,12.72
2023-03-29T17:40:45.871Z,12.62
2023-03-29T17:43:12.097Z,12.62
2023-03-29T17:45:38.337Z,12.60
2023-03-29T17:48:06.396Z,12.34
2023-03-29T17:50:32.987Z,11.78
2023-03-29T17:52:59.232Z,11.46
2023-03-29T17:55:25.472Z,11.49
2023-03-29T17:57:51.709Z,11.60
2023-03-29T18:00:17.951Z,11.70
2023-03-29T18:02:44.345Z,11.78
2023-03-29T18:05:10.639Z,11.88
2023-03-29T18:07:38.105Z,11.90
2023-03-29T18:10:04.353Z,11.88
2023-03-29T18:12:30.712Z,11.86
2023-03-29T18:14:56.985Z,11.82
2023-03-29T18:17:23.238Z,11.82
2023-03-29T18:19:49.488Z,11.82
2023-03-29T18:22:15.742Z,11.82
2023-03-29T18:24:41.975Z,11.85
2023-03-29T18:27:08.225Z,11.73
2023-03-29T18:29:34.447Z,11.77
2023-03-29T18:32:00.725Z,11.82
2023-03-29T18:34:26.985Z,11.80
2023-03-29T18:36:53.200Z,11.83
2023-03-29T18:39:19.441Z,11.88
2023-03-29T18:41:45.695Z,11.86
2023-03-29T18:44:11.938Z,11.74
2023-03-29T18:46:38.330Z,11.75
2023-03-29T18:49:04.687Z,11.75
2023-03-29T18:51:30.948Z,11.73
2023-03-29T18:53:57.207Z,11.55
2023-03-29T18:56:23.455Z,11.53
2023-03-29T18:58:49.702Z,11.58
2023-03-29T19:01:15.980Z,11.60
2023-03-29T19:03:42.373Z,11.62
2023-03-29T19:06:08.775Z,11.54
2023-03-29T19:08:35.007Z,11.53
2023-03-29T19:11:01.321Z,11.46
2023-03-29T19:13:27.608Z,11.34
2023-03-29T19:15:53.848Z,11.19
2023-03-29T19:18:20.136Z,11.26
2023-03-29T19:20:46.359Z,11.29
2023-03-29T19:23:12.626Z,11.26
2023-03-29T19:25:38.938Z,11.33
2023-03-29T19:28:05.155Z,11.26
2023-03-29T19:30:31.416Z,11.29
2023-03-29T19:32:57.729Z,11.34
2023-03-29T19:35:24.054Z,11.41
2023-03-29T19:37:50.289Z,11.39
2023-03-29T19:40:16.589Z,11.35
2023-03-29T19:42:42.830Z,11.29
2023-03-29T19:45:09.068Z,11.30
2023-03-29T19:47:35.352Z,11.34
2023-03-29T19:50:01.617Z,11.37
2023-03-29T19:52:27.902Z,11.36
2023-03-29T19:54:54.203Z,11.30
2023-03-29T19:57:20.486Z,11.32
2023-03-29T19:59:46.766Z,11.37
2023-03-29T20:02:13.039Z,11.40
2023-03-29T20:04:39.443Z,11.40
2023-03-29T20:07:05.689Z,11.44
2023-03-29T20:09:31.927Z,11.48
2023-03-29T20:11:58.161Z,11.46
2023-03-29T20:14:24.404Z,11.44
2023-03-29T20:16:50.907Z,11.42
2023-03-29T20:19:17.934Z,11.34
2023-03-29T20:21:44.196Z,11.36
2023-03-29T20:24:10.440Z,11.32
2023-03-29T20:26:36.674Z,11.32
2023-03-29T20:29:02.946Z,11.34
2023-03-29T20:31:29.251Z,11.37
2023-03-29T20:33:57.408Z,11.40
2023-03-29T20:36:23.915Z,11.27
2023-03-29T20:38:50.192Z,11.34
2023-03-29T20:41:16.483Z,11.39
2023-03-29T20:43:42.728Z,11.42
2023-03-29T20:46:08.979Z,11.46
2023-03-29T20:48:35.223Z,11.41
2023-03-29T20:51:01.659Z,11.37
2023-03-29T20:53:28.098Z,11.37
2023-03-29T20:55:54.331Z,11.39
2023-03-29T20:58:20.555Z,11.43
2023-03-29T21:00:46.909Z,11.43
2023-03-29T21:03:13.267Z,11.40
2023-03-29T21:05:39.578Z,11.46
2023-03-29T21:08:05.829Z,11.46
2023-03-29T21:10:32.064Z,11.43
2023-03-29T21:12:58.303Z,11.38
2023-03-29T21:15:24.527Z,11.17
2023-03-29T21:17:50.841Z,11.18
2023-03-29T21:20:17.220Z,11.22
2023-03-29T21:22:43.431Z,11.29
2023-03-29T21:25:09.676Z,11.33
2023-03-29T21:27:35.927Z,11.36
2023-03-29T21:30:02.247Z,11.35
2023-03-29T21:32:28.500Z,11.31
2023-03-29T21:34:54.757Z,11.36
2023-03-29T21:37:21.009Z,11.36
2023-03-29T21:39:47.238Z,11.36
2023-03-29T21:42:13.487Z,11.34
2023-03-29T21:44:39.714Z,11.35
2023-03-29T21:47:05.986Z,11.36
2023-03-29T21:49:32.306Z,11.37
2023-03-29T21:51:58.528Z,11.36
2023-03-29T21:54:24.765Z,11.33
2023-03-29T21:56:51.074Z,11.37
2023-03-29T21:59:17.339Z,11.40
2023-03-29T22:01:43.595Z,11.43
2023-03-29T22:04:09.834Z,11.39
2023-03-29T22:06:36.058Z,11.34
2023-03-29T22:09:02.273Z,11.31
2023-03-29T22:11:28.516Z,11.34
2023-03-29T22:13:54.776Z,11.24
2023-03-29T22:16:21.016Z,11.19
2023-03-29T22:18:47.328Z,11.22
2023-03-29T22:21:13.534Z,11.25
2023-03-29T22:23:39.777Z,11.21
2023-03-29T22:26:06.015Z,11.19
2023-03-29T22:28:32.258Z,11.17
2023-03-29T22:30:58.489Z,11.17
2023-03-29T22:33:24.701Z,11.17
2023-03-29T22:35:50.991Z,11.15
2023-03-29T22:38:17.268Z,11.21
2023-03-29T22:40:43.531Z,11.18
2023-03-29T22:43:09.777Z,11.16
2023-03-29T22:45:36.057Z,11.14
2023-03-29T22:48:02.384Z,11.13
2023-03-29T22:50:28.650Z,11.13
2023-03-29T22:52:54.882Z,10.52
2023-03-29T22:55:21.107Z,10.52
2023-03-29T22:57:47.329Z,10.58
2023-03-29T23:00:13.556Z,10.42
2023-03-29T23:02:39.855Z,10.48
2023-03-29T23:05:06.136Z,10.58
2023-03-29T23:07:32.355Z,10.67
2023-03-29T23:09:58.569Z,10.59
2023-03-29T23:12:24.804Z,10.65
2023-03-29T23:14:51.013Z,10.73
2023-03-29T23:17:17.230Z,10.78
2023-03-29T23:19:43.434Z,10.85
2023-03-29T23:22:09.660Z,10.77
2023-03-29T23:24:35.909Z,10.78
2023-03-29T23:27:02.151Z,10.81
2023-03-29T23:29:28.438Z,10.77
2023-03-29T23:31:54.759Z,10.75
2023-03-29T23:34:21.036Z,10.79
2023-03-29T23:36:47.328Z,10.79
2023-03-29T23:39:13.588Z,10.82
2023-03-29T23:41:39.802Z,10.81
2023-03-29T23:44:06.050Z,10.83
2023-03-29T23:46:32.331Z,10.91
2023-03-29T23:48:58.568Z,10.95
2023-03-29T23:51:24.789Z,11.02
2023-03-29T23:53:51.012Z,11.02
2023-03-29T23:56:17.257Z,10.99
2023-03-29T23:58:43.503Z,11.01
